Oakland, CA (94601)

10:19 PM PST on February 26, 2017 (GMT -0800)
Highland Terrace | | Change Station

Elev 150 ft 37.79 °N, 122.23 °W | Updated 9 minutes ago

Rain
Rain
45.7 °F
Feels Like 46 °F
N
0.0
Wind Variable Wind from West
Gusts 4.0 mph

Today
High -- | Low -- °F
--% Chance of Precip.
Yesterday
High -- | Low -- °F
Precip. -- in
Pressure 29.94 in
Visibility 9.0 miles
Clouds Few 1800 ft
Mostly Cloudy 2600 ft
Overcast 3800 ft
Windchill 46 °F
Dew Point 42 °F
Humidity 88%
Rainfall 0.09 in
Snow Depth Not available.
6:44 AM 5:59 PM
New Moon, 0% visible
METAR KOAK 270553Z 30010KT 9SM -RA FEW018 BKN026 OVC038 09/07 A2994 RMK AO2 RAB20 SLP138 P0001 60001 T00890072 10133 20089 53002
Pressure 29.94 in
Visibility 9.0 miles
Clouds Few 1800 ft
Mostly Cloudy 2600 ft
Overcast 3800 ft
Windchill 46 °F
Dew Point 42 °F
Humidity 88%
Rainfall 0.09 in
Snow Depth Not available.
6:44 AM 5:59 PM
New Moon, 0% visible
METAR KOAK 270553Z 30010KT 9SM -RA FEW018 BKN026 OVC038 09/07 A2994 RMK AO2 RAB20 SLP138 P0001 60001 T00890072 10133 20089 53002

Get Your Daily Forecast Email!

Thanks for signing up!

Be on the lookout for a verification email in your inbox.

You'll start receiving the daily forecast at 8 AM.

×

10-Day Weather Forecast

Almanac

Astronomy

Feb. 26, 2017 Rise Set
Actual Time
Civil Twilight
Nautical Twilight
Astronomical Twilight
Moon
Length of Visible Light
Length of Day
Tomorrow will be .
, % of the Moon is Illuminated

Today's Extremes

State Highs State Lows

Community

WunderPhotos

Upload Photos

1,962,540 photos uploaded!

WunderBlog® & News

Nearby

Air Quality

  Air Quality AQ Index Pollutant
Not available.

Snow Depth

Station Depth Elevation

Earthquake Activity

City Distance Mag. Time & Date
Minimum magnitude displayed is 2.5.

Coastal Water Temperatures

Place Temperature

Stations

Nearby Weather Stations

Station Location Temp. Windchill Dew Point Humidity Wind Precip. Elev Updated Type
                   

Watches & Warnings

There are currently no watches in effect.